Time;durP1;ratioP1;P1;durP2;ratioP2;P2;SDS_P1;SDS_P2;PMS_P1;PMS_P2;Temp;Humidity;BMP_temperature;BMP_pressure;BME280_temperature;BME280_humidity;BME280_pressure;Samples;Min_cycle;Max_cycle;Signal;HPM_P1;HPM_P2
2021/08/06 00:00:58;;;;;;;3.97;3.67;;;;;;;14.96;100.00;99961.22;5069353;28;20178;-71
2021/08/06 00:03:24;;;;;;;3.63;3.43;;;;;;;14.75;100.00;99958.69;5070274;28;20188;-71
2021/08/06 00:05:49;;;;;;;3.67;3.40;;;;;;;14.46;100.00;99953.53;5070626;28;20712;-71
2021/08/06 00:08:15;;;;;;;4.23;3.93;;;;;;;14.70;100.00;99961.69;5070605;28;20174;-70
2021/08/06 00:10:40;;;;;;;4.20;3.90;;;;;;;14.74;100.00;99962.59;5070629;28;20182;-71
2021/08/06 00:13:05;;;;;;;5.13;3.57;;;;;;;14.71;100.00;99952.28;5070433;28;20182;-71
2021/08/06 00:15:31;;;;;;;3.23;3.03;;;;;;;14.69;100.00;99951.03;5070483;28;20240;-71
2021/08/06 00:17:56;;;;;;;9.27;4.67;;;;;;;14.69;100.00;99949.09;5070565;28;20225;-71
2021/08/06 00:20:21;;;;;;;4.03;3.73;;;;;;;14.66;100.00;99947.06;5070273;28;20253;-71
2021/08/06 00:22:47;;;;;;;3.93;3.63;;;;;;;14.54;100.00;99941.59;5068853;28;20178;-71
2021/08/06 00:25:13;;;;;;;3.50;3.20;;;;;;;14.37;100.00;99933.63;5070439;28;20248;-71
2021/08/06 00:27:39;;;;;;;3.50;3.27;;;;;;;14.35;100.00;99934.00;5070490;28;20577;-71
2021/08/06 00:30:04;;;;;;;3.80;3.50;;;;;;;14.30;100.00;99935.00;5070714;28;20174;-71
2021/08/06 00:32:30;;;;;;;4.77;4.37;;;;;;;14.26;100.00;99933.31;5070214;28;20178;-71
2021/08/06 00:34:56;;;;;;;4.70;4.30;;;;;;;14.39;100.00;99937.63;5070316;28;20182;-71
2021/08/06 00:37:21;;;;;;;4.63;4.33;;;;;;;13.80;100.00;99934.69;5072808;28;20195;-71
2021/08/06 00:39:46;;;;;;;4.90;4.60;;;;;;;13.47;100.00;99934.81;5074454;28;20174;-71
2021/08/06 00:42:12;;;;;;;5.23;4.77;;;;;;;13.49;100.00;99922.34;5074610;28;20212;-71
2021/08/06 00:44:37;;;;;;;4.53;4.23;;;;;;;13.75;100.00;99932.19;5080120;28;20206;-71
2021/08/06 00:47:03;;;;;;;4.37;4.00;;;;;;;13.96;100.00;99938.31;5077594;28;20174;-71
2021/08/06 00:49:29;;;;;;;4.00;3.70;;;;;;;13.89;100.00;99927.94;5074917;28;20174;-71
2021/08/06 00:51:54;;;;;;;4.17;3.87;;;;;;;14.09;100.00;99928.91;5074252;28;20186;-71
2021/08/06 00:54:20;;;;;;;4.10;3.80;;;;;;;14.22;100.00;99932.41;5074427;28;20529;-71
2021/08/06 00:56:47;;;;;;;4.30;4.00;;;;;;;14.22;100.00;99922.22;5074079;28;20216;-71
2021/08/06 00:59:12;;;;;;;4.00;3.70;;;;;;;14.19;100.00;99924.88;5074207;28;20287;-71
2021/08/06 01:01:38;;;;;;;5.97;3.50;;;;;;;14.21;100.00;99917.88;5073966;28;20178;-71
2021/08/06 01:04:03;;;;;;;4.03;3.73;;;;;;;14.24;100.00;99917.19;5073450;28;20210;-71
2021/08/06 01:06:38;;;;;;;3.67;3.47;;;;;;;14.25;100.00;99921.53;5073757;28;20209;-71
2021/08/06 01:09:31;;;;;;;4.10;3.80;;;;;;;14.19;100.00;99911.94;5073662;28;20236;-71
2021/08/06 01:12:04;;;;;;;4.30;4.00;;;;;;;13.84;100.00;99919.13;5074067;28;20171;-71
2021/08/06 01:14:29;;;;;;;4.80;4.50;;;;;;;13.61;100.00;99911.38;5073674;28;20745;-71
2021/08/06 01:16:58;;;;;;;5.40;5.00;;;;;;;13.44;100.00;99906.09;5073682;28;20609;-71
2021/08/06 01:19:42;;;;;;;5.30;4.90;;;;;;;13.78;100.00;99915.81;5073238;28;20585;-71
2021/08/06 01:22:19;;;;;;;4.80;4.50;;;;;;;13.63;100.00;99920.06;5073348;28;20233;-71
2021/08/06 01:24:55;;;;;;;4.67;4.27;;;;;;;13.87;100.00;99913.72;5073352;28;20202;-71
2021/08/06 01:27:22;;;;;;;5.03;4.67;;;;;;;13.72;100.00;99914.44;5073370;28;20265;-71
2021/08/06 01:29:48;;;;;;;4.47;4.17;;;;;;;13.81;100.00;99908.81;5073332;28;20638;-71
2021/08/06 01:32:13;;;;;;;4.13;3.83;;;;;;;13.84;100.00;99910.88;5073061;28;20178;-71
2021/08/06 01:34:38;;;;;;;5.00;4.67;;;;;;;13.78;100.00;99906.78;5073795;28;20217;-71
2021/08/06 01:37:04;;;;;;;5.20;4.87;;;;;;;13.90;100.00;99913.06;5073246;28;20175;-71
2021/08/06 01:39:30;;;;;;;4.57;4.27;;;;;;;14.05;100.00;99917.03;5073331;28;20198;-71
2021/08/06 01:42:17;;;;;;;5.27;4.77;;;;;;;14.07;100.00;99905.69;5072765;28;20175;-71
2021/08/06 01:44:51;;;;;;;4.63;4.33;;;;;;;14.18;100.00;99913.09;5072866;28;20277;-71
2021/08/06 01:47:25;;;;;;;5.23;4.83;;;;;;;14.26;100.00;99912.13;5072931;28;20170;-71
2021/08/06 01:49:57;;;;;;;4.07;3.77;;;;;;;14.27;100.00;99913.72;5072260;28;20243;-71
2021/08/06 01:52:31;;;;;;;4.20;3.90;;;;;;;14.15;100.00;99910.22;5072806;28;20483;-71
2021/08/06 01:55:01;;;;;;;4.33;4.03;;;;;;;13.84;100.00;99902.63;5072828;28;20173;-71
2021/08/06 01:57:28;;;;;;;6.47;4.80;;;;;;;13.17;100.00;99887.56;5072923;28;20211;-71
2021/08/06 01:59:55;;;;;;;5.50;5.10;;;;;;;13.10;100.00;99888.13;5072783;28;20179;-71
2021/08/06 02:02:20;;;;;;;4.83;4.53;;;;;;;13.30;100.00;99895.47;5072357;28;20744;-71
2021/08/06 02:04:47;;;;;;;6.13;5.60;;;;;;;13.45;100.00;99895.94;5071267;28;20297;-71
2021/08/06 02:07:15;;;;;;;5.30;5.00;;;;;;;13.61;100.00;99900.41;5071412;28;20183;-71
2021/08/06 02:09:42;;;;;;;5.10;4.60;;;;;;;13.64;100.00;99898.91;5072597;28;20258;-71
2021/08/06 02:12:07;;;;;;;5.30;5.00;;;;;;;13.56;100.00;99888.84;5072270;28;20171;-71
2021/08/06 02:14:33;;;;;;;5.63;5.23;;;;;;;13.63;100.00;99889.88;5072342;28;20200;-71
2021/08/06 02:16:58;;;;;;;5.80;5.40;;;;;;;13.67;100.00;99898.22;5072698;28;20224;-71
2021/08/06 02:19:24;;;;;;;5.30;4.90;;;;;;;13.72;100.00;99892.47;5072460;28;20175;-71
2021/08/06 02:21:55;;;;;;;4.97;4.57;;;;;;;13.54;100.00;99889.19;5072654;28;20185;-71
2021/08/06 02:24:22;;;;;;;4.80;4.50;;;;;;;13.66;100.00;99902.91;5072762;28;20317;-71
2021/08/06 02:26:49;;;;;;;4.63;4.33;;;;;;;13.84;100.00;99908.13;5072154;28;20174;-71
2021/08/06 02:29:16;;;;;;;3.93;3.63;;;;;;;13.86;100.00;99909.38;5070870;28;20175;-71
2021/08/06 02:31:44;;;;;;;4.37;4.07;;;;;;;13.56;100.00;99894.31;5071880;28;20181;-71
2021/08/06 02:34:11;;;;;;;5.47;4.97;;;;;;;13.17;100.00;99895.81;5072164;28;20211;-71
2021/08/06 02:36:36;;;;;;;6.10;5.70;;;;;;;12.90;100.00;99887.09;5072004;28;20179;-71
2021/08/06 02:39:10;;;;;;;7.03;6.40;;;;;;;12.63;100.00;99902.22;5069390;28;20232;-71
2021/08/06 02:41:35;;;;;;;6.50;6.00;;;;;;;12.75;100.00;99910.47;5071875;28;20185;-71
2021/08/06 02:44:00;;;;;;;6.27;5.77;;;;;;;12.91;100.00;99920.78;5071817;28;20550;-71
2021/08/06 02:46:26;;;;;;;8.97;6.50;;;;;;;12.90;100.00;99925.47;5072153;28;20171;-71
2021/08/06 02:48:51;;;;;;;5.30;4.90;;;;;;;13.14;100.00;99929.38;5072018;28;20182;-71
2021/08/06 02:51:16;;;;;;;6.27;5.67;;;;;;;13.29;100.00;99934.22;5071835;28;20186;-70
2021/08/06 02:53:42;;;;;;;6.23;5.77;;;;;;;13.27;100.00;99923.59;5071683;28;20198;-71
2021/08/06 02:56:07;;;;;;;5.37;5.03;;;;;;;12.88;100.00;99896.81;5071889;28;20634;-71
2021/08/06 02:58:32;;;;;;;7.37;5.57;;;;;;;13.15;100.00;99911.78;5072432;28;20181;-71
2021/08/06 03:00:57;;;;;;;5.97;5.50;;;;;;;13.11;100.00;99909.72;5071677;28;20229;-71
2021/08/06 03:03:23;;;;;;;5.87;5.47;;;;;;;13.18;100.00;99916.59;5071392;28;20182;-71
2021/08/06 03:05:48;;;;;;;5.00;4.67;;;;;;;13.10;100.00;99905.38;5071512;28;20198;-71
2021/08/06 03:08:14;;;;;;;5.30;4.90;;;;;;;13.01;100.00;99901.13;5071467;28;20350;-71
2021/08/06 03:10:39;;;;;;;5.40;5.00;;;;;;;13.19;100.00;99910.00;5071731;28;20784;-71
2021/08/06 03:13:05;;;;;;;5.57;5.17;;;;;;;13.33;100.00;99905.78;5071304;28;20170;-71
2021/08/06 03:15:31;;;;;;;5.50;5.10;;;;;;;13.11;100.00;99890.53;5071423;28;20246;-71
2021/08/06 03:17:56;;;;;;;5.33;4.93;;;;;;;12.85;100.00;99887.28;5071469;28;20248;-71
2021/08/06 03:20:22;;;;;;;5.93;5.53;;;;;;;12.63;100.00;99880.28;5071204;28;20185;-71
2021/08/06 03:22:50;;;;;;;6.03;5.63;;;;;;;12.40;100.00;99893.56;5071235;28;20706;-71
2021/08/06 03:25:16;;;;;;;5.73;5.33;;;;;;;12.36;100.00;99889.09;5071093;28;20213;-71
2021/08/06 03:27:42;;;;;;;5.33;4.97;;;;;;;12.53;100.00;99897.16;5071426;28;20296;-71
2021/08/06 03:30:10;;;;;;;5.27;4.87;;;;;;;12.61;100.00;99898.22;5071477;28;20681;-70
2021/08/06 03:32:37;;;;;;;5.50;5.03;;;;;;;12.37;100.00;99879.75;5071011;28;20182;-71
2021/08/06 03:35:03;;;;;;;5.90;5.50;;;;;;;12.26;100.00;99889.50;5071204;28;20186;-71
2021/08/06 03:37:28;;;;;;;5.63;5.23;;;;;;;12.44;100.00;99889.03;5071333;28;20170;-71
2021/08/06 03:39:53;;;;;;;5.83;5.43;;;;;;;12.66;100.00;99895.25;5071242;28;20622;-71
2021/08/06 03:42:19;;;;;;;5.70;5.30;;;;;;;12.70;100.00;99896.97;5071225;28;20189;-71
2021/08/06 03:44:44;;;;;;;5.50;5.10;;;;;;;12.61;100.00;99885.31;5070972;28;20200;-71
2021/08/06 03:47:10;;;;;;;6.50;5.93;;;;;;;12.59;100.00;99875.84;5071039;28;20523;-71
2021/08/06 03:49:35;;;;;;;5.77;5.37;;;;;;;12.73;100.00;99895.47;5070868;28;20169;-71
2021/08/06 03:52:01;;;;;;;6.53;6.03;;;;;;;12.76;100.00;99903.84;5070918;28;20653;-71
2021/08/06 03:54:26;;;;;;;5.63;5.17;;;;;;;12.90;100.00;99911.78;5070773;28;20185;-71
2021/08/06 03:56:51;;;;;;;6.30;5.87;;;;;;;12.94;100.00;99912.69;5070795;28;20175;-71
2021/08/06 03:59:16;;;;;;;6.07;5.67;;;;;;;13.02;100.00;99909.06;5070960;28;20185;-71
2021/08/06 04:01:42;;;;;;;6.83;6.33;;;;;;;13.08;100.00;99499.03;5070666;28;20167;-71
2021/08/06 04:04:08;;;;;;;6.37;5.97;;;;;;;13.10;100.00;99665.97;5070527;28;20775;-71
2021/08/06 04:06:34;;;;;;;6.27;5.87;;;;;;;13.16;100.00;99751.56;5070885;28;20464;-71
2021/08/06 04:08:59;;;;;;;6.33;5.83;;;;;;;13.27;100.00;99758.19;5070642;28;20178;-71
2021/08/06 04:11:24;;;;;;;6.67;6.07;;;;;;;13.36;100.00;99754.19;5070222;28;20186;-71
2021/08/06 04:13:50;;;;;;;7.60;5.93;;;;;;;13.31;100.00;99761.88;5070588;28;20257;-71
2021/08/06 04:16:15;;;;;;;5.83;5.40;;;;;;;13.20;100.00;99782.69;5070743;28;20178;-71
2021/08/06 04:18:40;;;;;;;5.43;5.00;;;;;;;13.33;100.00;99774.09;5070510;28;20175;-71
2021/08/06 04:21:06;;;;;;;5.90;5.30;;;;;;;13.47;100.00;99787.44;5070472;28;20182;-71
2021/08/06 04:23:31;;;;;;;5.70;5.20;;;;;;;13.57;100.00;99775.94;5070452;28;20181;-71
2021/08/06 04:25:56;;;;;;;5.70;5.20;;;;;;;13.59;100.00;99767.38;5070365;28;20221;-71
2021/08/06 04:28:22;;;;;;;5.87;5.37;;;;;;;13.63;100.00;99807.53;5070527;28;20175;-71
2021/08/06 04:30:47;;;;;;;5.87;5.47;;;;;;;13.63;100.00;99796.53;5070543;28;20198;-71
2021/08/06 04:33:13;;;;;;;5.57;5.17;;;;;;;13.74;100.00;99796.81;5070294;28;20202;-71
2021/08/06 04:35:38;;;;;;;5.37;4.97;;;;;;;13.84;100.00;99817.50;5071188;28;20202;-71
2021/08/06 04:38:04;;;;;;;5.60;5.00;;;;;;;13.84;100.00;99817.50;5070557;28;20597;-70
2021/08/06 04:40:29;;;;;;;4.83;4.53;;;;;;;13.79;100.00;99815.03;5070525;28;20178;-71
2021/08/06 04:42:55;;;;;;;4.43;4.13;;;;;;;13.75;100.00;99806.69;5070067;28;20174;-71
2021/08/06 04:45:20;;;;;;;5.23;4.83;;;;;;;13.79;100.00;99804.84;5070413;28;20240;-71
2021/08/06 04:47:50;;;;;;;4.53;4.17;;;;;;;13.85;100.00;99811.66;5070392;28;20179;-71
2021/08/06 04:50:18;;;;;;;4.80;4.50;;;;;;;13.93;100.00;99797.00;5070458;28;20206;-71
2021/08/06 04:52:43;;;;;;;4.53;4.23;;;;;;;13.93;100.00;99796.22;5070120;28;20200;-71
2021/08/06 04:55:10;;;;;;;4.60;4.30;;;;;;;14.04;100.00;99797.31;5070455;28;20197;-71
2021/08/06 04:57:36;;;;;;;4.97;4.57;;;;;;;14.18;100.00;99796.91;5070259;28;20178;-71
2021/08/06 05:00:06;;;;;;;5.90;4.80;;;;;;;14.26;100.00;99791.22;5070197;28;20213;-71
2021/08/06 05:02:32;;;;;;;6.00;5.50;;;;;;;14.38;100.00;99789.56;5069987;28;20217;-71
2021/08/06 05:04:57;;;;;;;6.70;6.20;;;;;;;14.51;100.00;99791.13;5070026;28;20285;-71
2021/08/06 05:07:23;;;;;;;7.27;6.77;;;;;;;14.56;100.00;99785.34;5070133;28;20183;-71
2021/08/06 05:09:48;;;;;;;4.93;4.63;;;;;;;14.69;100.00;99792.38;5070079;28;20186;-71
2021/08/06 05:12:14;;;;;;;5.40;5.00;;;;;;;14.78;100.00;99787.50;5069871;28;20178;-71
2021/08/06 05:14:40;;;;;;;4.80;4.40;;;;;;;14.86;100.00;99781.00;5068781;28;20306;-71
2021/08/06 05:17:06;;;;;;;5.27;4.87;;;;;;;14.92;100.00;99781.53;5070103;28;20622;-71
2021/08/06 05:19:31;;;;;;;5.60;5.20;;;;;;;14.88;100.00;99784.19;5069863;28;20195;-71
2021/08/06 05:21:57;;;;;;;5.13;4.80;;;;;;;14.94;100.00;99775.69;5069851;28;20221;-71
2021/08/06 05:24:22;;;;;;;5.23;4.93;;;;;;;14.96;100.00;99779.66;5071973;28;20228;-71
2021/08/06 05:26:47;;;;;;;5.77;5.37;;;;;;;14.99;100.00;99773.44;5073574;28;20183;-72
2021/08/06 05:29:13;;;;;;;5.27;4.90;;;;;;;15.04;100.00;99769.63;5073485;28;20173;-72
2021/08/06 05:31:38;;;;;;;5.10;4.80;;;;;;;15.07;100.00;99777.97;5073327;28;20317;-71
2021/08/06 05:34:03;;;;;;;5.63;5.20;;;;;;;15.15;100.00;99776.16;5072090;28;20185;-72
2021/08/06 05:36:29;;;;;;;5.53;5.13;;;;;;;15.20;100.00;99821.91;5073457;28;20499;-72
2021/08/06 05:38:54;;;;;;;4.97;4.57;;;;;;;15.27;100.00;100014.69;5073131;28;20206;-72
2021/08/06 05:41:19;;;;;;;5.20;4.80;;;;;;;15.34;100.00;99886.31;5073113;28;20182;-71
2021/08/06 05:43:45;;;;;;;4.93;4.63;;;;;;;15.45;100.00;99848.03;5073222;28;20202;-71
2021/08/06 05:46:10;;;;;;;4.13;3.83;;;;;;;15.55;100.00;99795.16;5073318;28;20217;-71
2021/08/06 05:48:36;;;;;;;4.27;3.97;;;;;;;15.62;100.00;99786.25;5073441;28;20174;-71
2021/08/06 05:51:02;;;;;;;4.10;3.80;;;;;;;15.68;100.00;99765.56;5073017;28;20257;-72
2021/08/06 05:53:28;;;;;;;3.87;3.63;;;;;;;15.75;100.00;99755.47;5072896;28;20174;-71
2021/08/06 05:55:53;;;;;;;3.50;3.30;;;;;;;15.84;100.00;99757.22;5072852;28;20174;-72
2021/08/06 05:58:19;;;;;;;4.00;3.70;;;;;;;15.87;100.00;99748.22;5072910;28;20533;-73
2021/08/06 06:00:44;;;;;;;4.10;3.80;;;;;;;16.03;100.00;99722.16;5073255;28;20614;-72
2021/08/06 06:03:09;;;;;;;3.53;3.33;;;;;;;16.10;100.00;99726.22;5072429;28;20264;-72
2021/08/06 06:05:35;;;;;;;3.50;3.30;;;;;;;16.19;100.00;99722.06;5072816;28;20305;-72
2021/08/06 06:08:00;;;;;;;4.07;3.60;;;;;;;16.25;100.00;99706.81;5072624;28;20183;-71
2021/08/06 06:10:25;;;;;;;3.50;3.30;;;;;;;16.31;100.00;99708.09;5072694;28;20174;-71
2021/08/06 06:12:51;;;;;;;4.93;3.60;;;;;;;16.35;100.00;99708.97;5072469;28;20642;-71
2021/08/06 06:15:18;;;;;;;3.27;2.97;;;;;;;16.42;100.00;99700.00;5072681;28;20178;-72
2021/08/06 06:17:44;;;;;;;4.20;3.80;;;;;;;16.46;100.00;99709.13;5072681;28;20253;-71
2021/08/06 06:20:10;;;;;;;3.37;3.17;;;;;;;16.58;100.00;99700.66;5072623;28;20257;-71
2021/08/06 06:22:35;;;;;;;3.37;3.17;;;;;;;16.58;100.00;99852.34;5072328;28;20175;-71
2021/08/06 06:25:00;;;;;;;3.20;3.00;;;;;;;16.57;100.00;99801.13;5072441;28;20304;-71
2021/08/06 06:27:26;;;;;;;2.97;2.77;;;;;;;16.62;100.00;99780.69;5072445;28;20186;-71
2021/08/06 06:29:51;;;;;;;3.43;3.23;;;;;;;16.69;100.00;99786.38;5072653;28;20206;-72
2021/08/06 06:32:17;;;;;;;3.53;3.33;;;;;;;16.79;100.00;99785.78;5072521;28;20594;-71
2021/08/06 06:34:42;;;;;;;2.80;2.60;;;;;;;16.85;100.00;99786.25;5068989;28;20217;-71
2021/08/06 06:37:08;;;;;;;3.83;3.53;;;;;;;16.92;100.00;99789.94;5071500;28;20201;-71
2021/08/06 06:39:33;;;;;;;2.73;2.60;;;;;;;17.07;100.00;99796.47;5071712;28;20166;-72
2021/08/06 06:41:58;;;;;;;3.20;3.00;;;;;;;17.15;100.00;99784.34;5071456;28;20220;-71
2021/08/06 06:44:24;;;;;;;3.33;3.10;;;;;;;17.20;100.00;99772.97;5071888;28;20260;-70
2021/08/06 06:46:49;;;;;;;2.97;2.77;;;;;;;17.33;100.00;99772.75;5078728;28;20277;-71
2021/08/06 06:49:15;;;;;;;2.73;2.53;;;;;;;17.41;100.00;99780.00;5078139;28;20639;-66
2021/08/06 06:51:40;;;;;;;2.70;2.50;;;;;;;17.47;100.00;99779.28;5073076;28;20272;-71
2021/08/06 06:54:05;;;;;;;2.80;2.60;;;;;;;17.52;100.00;99787.25;5072317;28;20190;-70
2021/08/06 06:56:31;;;;;;;2.87;2.67;;;;;;;17.60;100.00;99785.38;5070676;28;20171;-71
2021/08/06 06:58:56;;;;;;;2.57;2.37;;;;;;;17.67;100.00;99777.19;5071900;28;20170;-71
2021/08/06 07:01:21;;;;;;;2.40;2.27;;;;;;;17.78;100.00;99780.09;5071883;28;20220;-71
2021/08/06 07:03:47;;;;;;;2.90;2.70;;;;;;;17.86;100.00;99770.72;5071787;28;20576;-71
2021/08/06 07:06:12;;;;;;;2.60;2.40;;;;;;;17.96;100.00;99769.28;5071933;28;20311;-71
2021/08/06 07:08:39;;;;;;;2.80;2.60;;;;;;;18.04;100.00;99768.97;5071803;28;20194;-71
2021/08/06 07:11:05;;;;;;;3.00;2.80;;;;;;;18.18;100.00;99782.13;5070361;28;20193;-71
2021/08/06 07:13:31;;;;;;;1.70;1.60;;;;;;;18.23;100.00;99765.22;5071562;28;20182;-72
2021/08/06 07:15:57;;;;;;;2.50;2.40;;;;;;;18.21;100.00;99764.00;5071635;28;20174;-72
2021/08/06 07:18:22;;;;;;;2.67;2.47;;;;;;;18.24;100.00;99763.25;5071447;28;20532;-71
2021/08/06 07:20:47;;;;;;;2.40;2.20;;;;;;;18.33;100.00;99770.06;5071472;28;20233;-71
2021/08/06 07:23:13;;;;;;;2.37;2.27;;;;;;;18.43;100.00;99769.38;5071102;28;20292;-71
2021/08/06 07:25:38;;;;;;;2.87;2.67;;;;;;;18.53;98.47;99776.19;5071331;28;20198;-71
2021/08/06 07:28:04;;;;;;;2.70;2.50;;;;;;;18.49;98.38;99764.28;5071343;28;20205;-72
2021/08/06 07:30:30;;;;;;;3.00;2.73;;;;;;;18.44;97.38;99765.41;5071319;28;20170;-71
2021/08/06 07:32:55;;;;;;;2.40;2.20;;;;;;;18.62;100.00;99779.41;5070917;28;20660;-71
2021/08/06 07:35:21;;;;;;;2.33;2.17;;;;;;;18.60;98.79;99772.69;5071105;28;20668;-72
2021/08/06 07:37:47;;;;;;;2.60;2.50;;;;;;;18.65;98.65;99777.88;5071495;28;20249;-71
2021/08/06 07:40:14;;;;;;;3.20;2.90;;;;;;;18.69;99.06;99779.53;5071070;28;20265;-79
2021/08/06 07:42:40;;;;;;;2.73;2.50;;;;;;;18.74;99.22;99781.13;5070461;28;20186;-75
2021/08/06 07:45:06;;;;;;;2.50;2.40;;;;;;;18.82;98.50;99768.94;5070498;28;20198;-75
2021/08/06 07:47:32;;;;;;;2.63;2.43;;;;;;;18.87;98.29;99767.78;5067872;28;20190;-74
2021/08/06 07:49:57;;;;;;;2.83;2.73;;;;;;;18.98;98.53;99769.47;5070355;28;20253;-73
2021/08/06 07:52:23;;;;;;;3.27;3.00;;;;;;;19.10;98.01;99760.06;5069081;28;20232;-71
2021/08/06 07:54:48;;;;;;;2.93;2.73;;;;;;;19.17;97.25;99767.59;5070802;28;20207;-72
2021/08/06 07:57:14;;;;;;;2.90;2.70;;;;;;;19.29;95.79;99768.09;5070834;28;20175;-72
2021/08/06 07:59:39;;;;;;;3.17;2.77;;;;;;;19.36;93.83;99764.56;5070576;28;20521;-71
2021/08/06 08:02:05;;;;;;;4.80;2.60;;;;;;;19.55;95.96;99769.06;5069297;28;20170;-71
2021/08/06 08:04:31;;;;;;;2.20;2.10;;;;;;;19.64;93.71;99774.22;5070557;28;20210;-72
2021/08/06 08:06:57;;;;;;;2.50;2.30;;;;;;;19.64;91.24;99993.97;5069570;28;20222;-73
2021/08/06 08:09:22;;;;;;;2.50;2.30;;;;;;;19.55;89.66;99813.41;5070839;28;20283;-75
2021/08/06 08:11:48;;;;;;;2.53;2.33;;;;;;;19.51;92.64;99802.22;5070584;28;20638;-72
2021/08/06 08:14:13;;;;;;;1.80;1.43;;;;;;;19.52;90.82;99812.13;5070704;28;20178;-71
2021/08/06 08:16:39;;;;;;;2.20;2.10;;;;;;;19.61;92.17;99812.63;5070475;28;20174;-72
2021/08/06 08:19:04;;;;;;;2.43;2.30;;;;;;;19.65;88.90;99809.88;5070217;28;20233;-72
2021/08/06 08:21:30;;;;;;;2.17;2.07;;;;;;;19.71;88.08;99807.53;5070235;28;20240;-72
2021/08/06 08:23:56;;;;;;;2.10;1.90;;;;;;;19.70;89.12;99811.50;5070522;28;20185;-71
2021/08/06 08:26:21;;;;;;;2.10;1.90;;;;;;;19.80;90.41;99825.38;5070582;28;20253;-72
2021/08/06 08:28:47;;;;;;;1.10;0.97;;;;;;;19.84;86.96;99814.34;5070838;28;20574;-71
2021/08/06 08:31:13;;;;;;;2.37;2.17;;;;;;;19.77;87.58;99814.28;5070606;28;20170;-71
2021/08/06 08:33:38;;;;;;;4.23;1.50;;;;;;;19.67;86.90;99824.13;5070499;28;20171;-72
2021/08/06 08:36:04;;;;;;;2.40;2.20;;;;;;;19.58;88.99;99816.19;5070465;28;20170;-71
2021/08/06 08:38:31;;;;;;;1.50;1.40;;;;;;;19.62;89.11;99807.88;5070448;28;20536;-71
2021/08/06 08:40:57;;;;;;;2.93;2.73;;;;;;;19.73;88.71;99808.72;5070303;28;20198;-72
2021/08/06 08:43:24;;;;;;;2.27;2.17;;;;;;;19.89;89.08;99805.63;5070110;28;20178;-72
2021/08/06 08:45:49;;;;;;;2.73;2.53;;;;;;;20.04;89.08;99801.72;5069723;28;20207;-72
2021/08/06 08:48:17;;;;;;;2.20;2.03;;;;;;;20.10;87.21;99813.22;5070218;28;20192;-71
2021/08/06 08:50:43;;;;;;;1.73;1.63;;;;;;;20.11;86.90;99806.53;5070232;28;20171;-72
2021/08/06 08:53:09;;;;;;;1.93;1.80;;;;;;;20.01;88.10;99799.75;5065270;28;20183;-72
2021/08/06 08:55:37;;;;;;;1.87;1.77;;;;;;;20.03;86.37;99799.34;5069796;28;20213;-72
2021/08/06 08:58:03;;;;;;;2.27;2.17;;;;;;;20.04;87.89;99787.84;5069080;28;20532;-72
2021/08/06 09:00:29;;;;;;;2.43;2.33;;;;;;;20.21;86.32;99797.41;5072054;28;20186;-72
2021/08/06 09:02:54;;;;;;;2.10;2.00;;;;;;;20.26;85.79;99791.50;5071778;28;20179;-72
2021/08/06 09:05:24;;;;;;;1.50;1.40;;;;;;;20.49;85.85;99791.94;5071916;28;20632;-72
2021/08/06 09:07:50;;;;;;;1.37;1.27;;;;;;;20.58;82.59;99774.13;5071942;28;20178;-72
2021/08/06 09:10:16;;;;;;;2.33;2.17;;;;;;;20.67;82.97;99774.53;5072254;28;20179;-72
2021/08/06 09:13:01;;;;;;;1.97;1.87;;;;;;;20.76;85.65;99774.94;5072973;28;20175;-72
2021/08/06 09:15:42;;;;;;;2.07;1.97;;;;;;;20.82;82.92;99786.41;5073873;28;20257;-72
2021/08/06 09:18:28;;;;;;;2.30;2.10;;;;;;;20.93;84.38;99787.22;5073395;28;20577;-72
2021/08/06 09:21:03;;;;;;;2.10;2.00;;;;;;;21.03;81.95;99120.63;5073448;28;20178;-74
2021/08/06 09:24:01;;;;;;;2.57;2.40;;;;;;;21.06;82.05;99464.19;5073208;28;20527;-71
2021/08/06 09:26:27;;;;;;;2.50;2.30;;;;;;;20.98;81.86;99431.34;5069110;28;20199;-71
2021/08/06 09:29:12;;;;;;;2.10;2.00;;;;;;;21.07;81.83;99440.00;5073295;28;20177;-71
2021/08/06 09:31:43;;;;;;;2.27;2.17;;;;;;;21.08;81.44;99389.59;5073106;28;20178;-71
2021/08/06 09:34:10;;;;;;;2.47;2.27;;;;;;;21.16;83.78;99378.44;5073153;28;20626;-71
2021/08/06 09:36:35;;;;;;;2.07;1.97;;;;;;;21.27;83.31;99376.41;5073320;28;20531;-71
2021/08/06 09:39:14;;;;;;;2.03;1.93;;;;;;;21.17;80.18;99377.25;5072832;28;20189;-71
2021/08/06 09:41:42;;;;;;;1.00;0.57;;;;;;;21.04;79.91;99379.72;5070093;28;20887;-71
2021/08/06 09:44:20;;;;;;;3.87;2.10;;;;;;;20.87;80.84;99380.63;5072090;28;20180;-72
2021/08/06 09:46:46;;;;;;;2.20;2.10;;;;;;;20.99;82.66;99382.94;5071788;28;20174;-72
2021/08/06 09:49:12;;;;;;;2.33;2.13;;;;;;;20.82;80.01;99397.69;5072332;28;20183;-72
2021/08/06 09:51:39;;;;;;;2.30;2.10;;;;;;;20.63;81.30;99388.69;5072266;28;20181;-71
2021/08/06 09:54:19;;;;;;;1.80;1.70;;;;;;;20.63;80.75;99383.13;5072240;28;20252;-72
2021/08/06 09:56:45;;;;;;;0.60;0.60;;;;;;;20.52;80.80;99376.84;5068948;28;20186;-72
2021/08/06 09:59:11;;;;;;;1.63;1.53;;;;;;;20.56;81.62;99376.84;5071686;28;20273;-72
2021/08/06 10:01:36;;;;;;;2.33;2.13;;;;;;;20.69;80.78;99384.31;5071305;28;20296;-72
2021/08/06 10:04:15;;;;;;;1.43;1.33;;;;;;;21.02;78.21;99376.56;5071238;28;20236;-72
2021/08/06 10:06:58;;;;;;;3.30;2.43;;;;;;;21.18;77.59;99376.81;5069209;28;20213;-71
2021/08/06 10:09:24;;;;;;;1.40;1.30;;;;;;;21.49;77.89;99376.97;5062180;28;20213;-72
2021/08/06 10:11:50;;;;;;;1.20;1.10;;;;;;;21.48;75.20;99370.63;5069957;28;20180;-71
2021/08/06 10:14:15;;;;;;;1.67;1.57;;;;;;;21.41;77.88;100359.34;5070757;28;20646;-72
2021/08/06 10:16:41;;;;;;;1.90;1.80;;;;;;;21.55;77.54;100306.63;5070779;28;20185;-71
2021/08/06 10:19:07;;;;;;;1.80;1.70;;;;;;;21.74;76.01;100145.03;5069324;28;20211;-72
2021/08/06 10:21:33;;;;;;;1.90;1.80;;;;;;;21.87;76.69;100162.94;5058971;28;20754;-71
2021/08/06 10:23:58;;;;;;;1.00;1.00;;;;;;;21.95;74.40;100136.72;5067981;28;20179;-71
2021/08/06 10:26:24;;;;;;;0.90;0.77;;;;;;;21.58;76.75;100028.63;5070744;28;20468;-71
2021/08/06 10:28:50;;;;;;;1.67;1.57;;;;;;;21.60;77.40;99964.28;5072163;28;20186;-72
2021/08/06 10:31:22;;;;;;;2.33;2.13;;;;;;;21.56;77.34;99953.16;5071522;28;20179;-72
2021/08/06 10:34:08;;;;;;;1.90;1.80;;;;;;;21.53;77.17;99917.81;5071957;28;20176;-71
2021/08/06 10:36:43;;;;;;;1.93;1.80;;;;;;;21.39;78.61;99879.69;5059571;28;20183;-72
2021/08/06 10:39:30;;;;;;;1.63;1.53;;;;;;;21.25;78.25;99865.81;5066007;28;20236;-72
2021/08/06 10:41:57;;;;;;;1.67;1.57;;;;;;;21.15;81.02;99838.00;5071520;28;20182;-71
2021/08/06 10:44:22;;;;;;;2.73;1.73;;;;;;;20.94;78.51;99814.59;5068225;28;20595;-71
2021/08/06 10:47:02;;;;;;;3.03;1.57;;;;;;;20.92;79.95;99791.97;5079578;28;20182;-72
2021/08/06 10:49:32;;;;;;;1.30;1.30;;;;;;;20.82;79.87;99773.31;5065436;28;20225;-72
2021/08/06 10:52:10;;;;;;;1.83;1.73;;;;;;;20.75;81.67;99771.38;5070647;28;20224;-71
2021/08/06 10:54:35;;;;;;;1.60;1.50;;;;;;;20.78;82.23;99767.78;5070200;28;20218;-71
2021/08/06 10:57:29;;;;;;;1.70;1.60;;;;;;;20.96;81.57;99778.09;5068639;28;20645;-71
2021/08/06 10:59:55;;;;;;;1.80;1.70;;;;;;;20.99;83.08;99764.22;5070160;28;20265;-71
2021/08/06 11:02:41;;;;;;;1.80;1.70;;;;;;;21.01;80.99;99756.28;5070931;28;20190;-71
2021/08/06 11:05:39;;;;;;;2.47;2.30;;;;;;;21.18;81.09;99739.97;5070683;28;20195;-71
2021/08/06 11:08:43;;;;;;;1.93;1.83;;;;;;;21.61;80.96;99740.66;5071629;28;20163;-72
2021/08/06 11:11:08;;;;;;;1.90;1.80;;;;;;;22.00;77.53;99737.72;5070529;28;20166;-72
2021/08/06 11:13:36;;;;;;;1.70;1.60;;;;;;;22.30;77.38;99730.78;5070811;28;20168;-72
2021/08/06 11:16:11;;;;;;;2.00;1.90;;;;;;;22.46;74.21;100099.38;5071439;28;20168;-72
2021/08/06 11:18:45;;;;;;;1.63;1.53;;;;;;;22.70;73.24;99891.59;5069847;28;20187;-72
2021/08/06 11:21:11;;;;;;;1.30;1.20;;;;;;;22.84;73.69;99848.97;5070045;28;20533;-71
2021/08/06 11:23:36;;;;;;;1.40;0.83;;;;;;;22.51;72.15;99766.81;5066118;28;20175;-72
2021/08/06 11:26:10;;;;;;;1.30;1.30;;;;;;;22.20;73.53;99741.59;5070387;28;20194;-71
2021/08/06 11:28:36;;;;;;;1.43;1.30;;;;;;;22.21;74.88;99700.63;5068680;28;20192;-72